createdAt,value
2023-02-08T00:00:00.600Z,94.50
2023-02-08T00:02:30.294Z,94.50
2023-02-08T00:04:57.915Z,94.50
2023-02-08T00:07:26.303Z,94.50
2023-02-08T00:09:56.090Z,94.70
2023-02-08T00:12:23.714Z,94.70
2023-02-08T00:14:51.462Z,94.70
2023-02-08T00:17:20.995Z,95.00
2023-02-08T00:19:48.536Z,95.00
2023-02-08T00:22:16.875Z,95.00
2023-02-08T00:24:46.541Z,94.80
2023-02-08T00:27:14.142Z,94.80
2023-02-08T00:29:41.866Z,94.40
2023-02-08T00:32:15.214Z,94.20
2023-02-08T00:34:42.976Z,94.00
2023-02-08T00:37:10.714Z,93.80
2023-02-08T00:39:38.462Z,93.90
2023-02-08T00:42:06.483Z,93.90
2023-02-08T00:44:34.742Z,93.70
2023-02-08T00:47:04.273Z,93.70
2023-02-08T00:49:32.421Z,93.60
2023-02-08T00:52:00.038Z,93.60
2023-02-08T00:54:27.807Z,93.70
2023-02-08T00:56:55.697Z,93.40
2023-02-08T00:59:23.319Z,93.60
2023-02-08T01:01:53.144Z,93.80
2023-02-08T01:04:21.518Z,93.70
2023-02-08T01:06:49.228Z,93.80
2023-02-08T01:09:18.273Z,93.70
2023-02-08T01:11:46.171Z,93.80
2023-02-08T01:14:14.007Z,93.70
2023-02-08T01:16:43.619Z,93.60
2023-02-08T01:19:12.188Z,93.60
2023-02-08T01:21:51.303Z,93.50
2023-02-08T01:24:19.574Z,93.30
2023-02-08T01:26:47.187Z,93.10
2023-02-08T01:29:16.962Z,92.80
2023-02-08T01:31:45.252Z,92.80
2023-02-08T01:34:12.983Z,92.40
2023-02-08T01:36:40.772Z,92.10
2023-02-08T01:39:09.365Z,92.10
2023-02-08T01:41:37.301Z,91.90
2023-02-08T01:44:06.859Z,91.80
2023-02-08T01:46:37.456Z,91.70
2023-02-08T01:49:05.016Z,91.10
2023-02-08T01:51:37.195Z,91.10
2023-02-08T01:54:05.465Z,91.10
2023-02-08T01:56:32.986Z,91.10
2023-02-08T01:59:02.741Z,91.20
2023-02-08T02:01:31.222Z,91.20
2023-02-08T02:03:59.156Z,91.10
2023-02-08T02:06:28.834Z,91.20
2023-02-08T02:08:57.161Z,91.30
2023-02-08T02:11:25.309Z,91.00
2023-02-08T02:13:54.802Z,91.10
2023-02-08T02:16:23.214Z,90.70
2023-02-08T02:18:50.814Z,90.70
2023-02-08T02:21:20.309Z,90.60
2023-02-08T02:23:48.646Z,90.50
2023-02-08T02:26:16.525Z,89.80
2023-02-08T02:28:46.489Z,89.80
2023-02-08T02:31:14.889Z,89.40
2023-02-08T02:33:42.721Z,89.60
2023-02-08T02:36:12.209Z,89.30
2023-02-08T02:38:39.879Z,88.00
2023-02-08T02:41:07.474Z,87.10
2023-02-08T02:43:37.249Z,86.60
2023-02-08T02:46:05.055Z,85.90
2023-02-08T02:48:33.542Z,85.50
2023-02-08T02:51:08.248Z,84.70
2023-02-08T02:53:37.799Z,84.00
2023-02-08T02:56:07.736Z,83.60
2023-02-08T02:58:35.376Z,83.10
2023-02-08T03:01:03.805Z,81.70
2023-02-08T03:03:33.905Z,81.80
2023-02-08T03:06:04.282Z,80.80
2023-02-08T03:08:31.875Z,79.80
2023-02-08T03:11:01.789Z,79.50
2023-02-08T03:13:29.529Z,78.50
2023-02-08T03:15:58.291Z,78.40
2023-02-08T03:18:28.367Z,79.00
2023-02-08T03:20:56.476Z,78.60
2023-02-08T03:23:23.999Z,78.00
2023-02-08T03:25:53.953Z,77.30
2023-02-08T03:28:21.740Z,77.10
2023-02-08T03:30:49.431Z,75.80
2023-02-08T03:33:19.262Z,75.40
2023-02-08T03:35:47.521Z,75.90
2023-02-08T03:38:15.098Z,75.50
2023-02-08T03:40:43.883Z,74.00
2023-02-08T03:43:12.197Z,74.10
2023-02-08T03:45:39.750Z,75.10
2023-02-08T03:48:09.261Z,74.90
2023-02-08T03:50:38.495Z,74.90
2023-02-08T03:53:06.290Z,74.40
2023-02-08T03:55:35.856Z,73.80
2023-02-08T03:58:03.707Z,73.20
2023-02-08T04:00:32.463Z,72.80
2023-02-08T04:03:02.905Z,71.20
2023-02-08T04:05:31.492Z,71.40
2023-02-08T04:07:59.059Z,69.10
2023-02-08T04:10:27.833Z,66.70
2023-02-08T04:12:55.686Z,65.70
2023-02-08T04:15:23.223Z,67.10
2023-02-08T04:17:53.187Z,68.10
2023-02-08T04:20:20.900Z,68.50
2023-02-08T04:22:48.490Z,66.60
2023-02-08T04:25:18.404Z,67.00
2023-02-08T04:27:46.503Z,66.90
2023-02-08T04:30:14.116Z,66.50
2023-02-08T04:32:44.014Z,65.40
2023-02-08T04:35:11.906Z,65.10
2023-02-08T04:37:39.619Z,64.10
2023-02-08T04:40:09.202Z,64.10
2023-02-08T04:42:37.491Z,63.40
2023-02-08T04:45:05.087Z,60.90
2023-02-08T04:47:35.215Z,62.40
2023-02-08T04:50:05.311Z,61.40
2023-02-08T04:52:45.213Z,61.90
2023-02-08T04:55:14.728Z,61.50
2023-02-08T04:57:42.701Z,60.90
2023-02-08T05:00:11.240Z,60.70
2023-02-08T05:02:39.601Z,60.60
2023-02-08T05:05:07.601Z,60.70
2023-02-08T05:07:37.566Z,61.10
2023-02-08T05:10:05.863Z,61.60
2023-02-08T05:12:34.622Z,61.00
2023-02-08T05:15:04.970Z,59.50
2023-02-08T05:17:34.256Z,58.50
2023-02-08T05:20:01.887Z,58.80
2023-02-08T05:22:30.316Z,59.50
2023-02-08T05:24:59.157Z,60.20
2023-02-08T05:27:28.134Z,60.70
2023-02-08T05:30:02.470Z,59.20
2023-02-08T05:32:30.652Z,58.30
2023-02-08T05:34:58.423Z,58.60
2023-02-08T05:37:29.772Z,58.70
2023-02-08T05:39:58.470Z,58.90
2023-02-08T05:42:26.465Z,58.40
2023-02-08T05:44:57.157Z,58.40
2023-02-08T05:47:24.727Z,58.40
2023-02-08T05:49:52.290Z,59.60
2023-02-08T05:52:23.485Z,59.70
2023-02-08T05:54:51.969Z,60.30
2023-02-08T05:57:20.494Z,60.30
2023-02-08T05:59:51.468Z,60.80
2023-02-08T06:02:19.531Z,61.20
2023-02-08T06:04:47.623Z,59.60
2023-02-08T06:07:18.095Z,60.20
2023-02-08T06:09:48.457Z,60.70
2023-02-08T06:12:17.014Z,60.50
2023-02-08T06:14:47.099Z,60.00
2023-02-08T06:17:15.049Z,59.50
2023-02-08T06:19:43.352Z,58.70
2023-02-08T06:22:13.033Z,58.70
2023-02-08T06:24:40.847Z,58.30
2023-02-08T06:27:08.630Z,57.90
2023-02-08T06:29:38.402Z,57.30
2023-02-08T06:32:06.095Z,57.00
2023-02-08T06:34:34.202Z,57.40
2023-02-08T06:37:03.997Z,58.10
2023-02-08T06:39:31.895Z,58.90
2023-02-08T06:42:00.381Z,58.90
2023-02-08T06:44:28.046Z,58.80
2023-02-08T06:46:55.662Z,61.80
2023-02-08T06:49:24.248Z,65.20
2023-02-08T06:51:53.786Z,65.30
2023-02-08T06:54:27.467Z,65.80
2023-02-08T06:56:56.956Z,65.70
2023-02-08T06:59:24.524Z,65.00
2023-02-08T07:01:52.815Z,64.80
2023-02-08T07:04:22.566Z,64.20
2023-02-08T07:06:50.444Z,64.00
2023-02-08T07:09:18.759Z,63.90
2023-02-08T07:11:49.116Z,63.70
2023-02-08T07:14:16.669Z,64.80
2023-02-08T07:16:44.609Z,64.50
2023-02-08T07:19:14.303Z,64.90
2023-02-08T07:21:41.991Z,65.20
2023-02-08T07:24:09.541Z,64.30
2023-02-08T07:26:39.350Z,64.80
2023-02-08T07:29:06.890Z,64.60
2023-02-08T07:31:35.340Z,64.10
2023-02-08T07:34:06.074Z,63.50
2023-02-08T07:36:33.741Z,61.60
2023-02-08T07:39:01.653Z,61.50
2023-02-08T07:41:31.671Z,62.30
2023-02-08T07:43:59.294Z,61.90
2023-02-08T07:46:27.320Z,62.50
2023-02-08T07:48:57.160Z,62.20
2023-02-08T07:51:24.668Z,61.70
2023-02-08T07:53:52.573Z,61.20
2023-02-08T07:56:20.259Z,60.50
2023-02-08T07:58:47.801Z,60.10
2023-02-08T08:01:22.285Z,59.70
2023-02-08T08:03:52.802Z,59.40
2023-02-08T08:06:20.669Z,60.00
2023-02-08T08:08:48.938Z,60.30
2023-02-08T08:11:18.770Z,60.70
2023-02-08T08:13:46.458Z,61.50
2023-02-08T08:16:14.100Z,62.10
2023-02-08T08:18:44.070Z,62.40
2023-02-08T08:21:12.632Z,62.70
2023-02-08T08:23:40.413Z,62.30
2023-02-08T08:26:10.216Z,62.50
2023-02-08T08:28:39.632Z,62.40
2023-02-08T08:31:07.296Z,62.20
2023-02-08T08:33:35.541Z,62.00
2023-02-08T08:36:03.657Z,61.80
2023-02-08T08:38:31.419Z,61.10
2023-02-08T08:41:01.248Z,61.20
2023-02-08T08:43:29.608Z,60.90
2023-02-08T08:45:57.825Z,61.30
2023-02-08T08:48:27.746Z,62.40
2023-02-08T08:50:56.392Z,63.30
2023-02-08T08:53:23.919Z,63.90
2023-02-08T08:55:56.800Z,64.00
2023-02-08T08:58:25.287Z,64.00
2023-02-08T09:00:54.581Z,63.50
2023-02-08T09:03:24.199Z,63.20
2023-02-08T09:05:52.875Z,62.00
2023-02-08T09:08:20.531Z,62.50
2023-02-08T09:10:50.329Z,61.90
2023-02-08T09:13:18.096Z,61.40
2023-02-08T09:15:45.755Z,61.30
2023-02-08T09:18:15.253Z,61.90
2023-02-08T09:20:46.650Z,62.50
2023-02-08T09:23:14.241Z,63.00
2023-02-08T09:25:44.915Z,62.90
2023-02-08T09:28:13.625Z,62.60
2023-02-08T09:30:41.609Z,63.00
2023-02-08T09:33:11.701Z,63.10
2023-02-08T09:35:39.294Z,62.40
2023-02-08T09:38:06.890Z,62.30
2023-02-08T09:40:36.688Z,62.60
2023-02-08T09:43:04.399Z,63.10
2023-02-08T09:45:31.966Z,63.20
2023-02-08T09:48:01.850Z,63.10
2023-02-08T09:50:29.728Z,63.60
2023-02-08T09:52:57.371Z,63.50
2023-02-08T09:55:27.093Z,63.40
2023-02-08T09:57:55.031Z,63.60
2023-02-08T10:00:22.607Z,64.60
2023-02-08T10:03:00.019Z,63.70
2023-02-08T10:05:27.641Z,64.10
2023-02-08T10:07:55.243Z,64.30
2023-02-08T10:10:35.407Z,64.50
2023-02-08T10:13:04.523Z,64.80
2023-02-08T10:15:32.680Z,64.80
2023-02-08T10:18:02.131Z,65.50
2023-02-08T10:20:29.880Z,65.80
2023-02-08T10:23:00.439Z,65.80
2023-02-08T10:25:30.056Z,66.10
2023-02-08T10:27:58.669Z,66.10
2023-02-08T10:30:28.315Z,66.30
2023-02-08T10:32:58.238Z,66.50
2023-02-08T10:35:29.365Z,66.90
2023-02-08T10:37:57.114Z,67.30
2023-02-08T10:40:26.840Z,67.50
2023-02-08T10:42:55.333Z,67.90
2023-02-08T10:45:24.798Z,68.20
2023-02-08T10:47:54.776Z,69.00
2023-02-08T10:50:23.443Z,69.10
2023-02-08T10:52:51.001Z,69.40
2023-02-08T10:55:21.093Z,69.60
2023-02-08T10:57:49.373Z,69.80
2023-02-08T11:00:16.948Z,70.30
2023-02-08T11:02:46.835Z,70.70
2023-02-08T11:05:19.780Z,72.00
2023-02-08T11:07:47.428Z,72.20
2023-02-08T11:10:18.508Z,72.20
2023-02-08T11:12:46.650Z,72.40
2023-02-08T11:15:14.188Z,72.70
2023-02-08T11:17:41.943Z,73.20
2023-02-08T11:20:09.754Z,73.30
2023-02-08T11:22:37.341Z,73.40
2023-02-08T11:25:07.145Z,74.40
2023-02-08T11:27:35.506Z,74.70
2023-02-08T11:30:03.076Z,74.70
2023-02-08T11:32:32.766Z,75.00
2023-02-08T11:35:00.609Z,75.50
2023-02-08T11:37:28.188Z,75.80
2023-02-08T11:39:56.889Z,76.20
2023-02-08T11:42:24.743Z,76.10
2023-02-08T11:44:52.219Z,76.40
2023-02-08T11:47:22.860Z,76.40
2023-02-08T11:49:51.200Z,76.60
2023-02-08T11:52:18.794Z,76.70
2023-02-08T11:54:49.169Z,76.60
2023-02-08T11:57:17.055Z,76.70
2023-02-08T11:59:44.621Z,76.80
2023-02-08T12:02:18.671Z,76.30
2023-02-08T12:04:46.313Z,76.10
2023-02-08T12:07:27.569Z,76.70
2023-02-08T12:09:55.126Z,76.20
2023-02-08T12:12:22.721Z,76.50
2023-02-08T12:14:50.278Z,76.90
2023-02-08T12:17:18.630Z,77.20
2023-02-08T12:19:46.138Z,77.00
2023-02-08T12:22:14.798Z,77.00
2023-02-08T12:24:42.474Z,77.60
2023-02-08T12:27:10.142Z,77.80
2023-02-08T12:29:47.338Z,78.50
2023-02-08T12:32:16.603Z,78.80
2023-02-08T12:34:46.401Z,79.20
2023-02-08T12:37:13.939Z,79.50
2023-02-08T12:39:42.296Z,79.70
2023-02-08T12:42:13.364Z,80.20
2023-02-08T12:44:41.073Z,80.30
2023-02-08T12:47:09.468Z,80.80
2023-02-08T12:49:39.218Z,80.60
2023-02-08T12:52:08.217Z,80.80
2023-02-08T12:54:36.335Z,80.60
2023-02-08T12:57:03.929Z,81.00
2023-02-08T12:59:31.637Z,81.30
2023-02-08T13:02:01.670Z,81.30
2023-02-08T13:04:32.454Z,81.60
2023-02-08T13:07:00.128Z,81.90
2023-02-08T13:09:28.361Z,82.20
2023-02-08T13:11:56.812Z,82.00
2023-02-08T13:14:24.460Z,82.50
2023-02-08T13:16:52.039Z,82.90
2023-02-08T13:19:20.737Z,83.40
2023-02-08T13:21:49.101Z,83.80
2023-02-08T13:24:18.651Z,84.20
2023-02-08T13:26:48.524Z,84.60
2023-02-08T13:29:17.108Z,84.70
2023-02-08T13:31:44.794Z,85.00
2023-02-08T13:34:33.072Z,85.70
2023-02-08T13:37:00.783Z,86.20
2023-02-08T13:39:28.376Z,86.60
2023-02-08T13:41:59.228Z,86.80
2023-02-08T13:44:26.998Z,87.30
2023-02-08T13:46:54.588Z,87.70
2023-02-08T13:49:23.817Z,87.90
2023-02-08T13:51:52.835Z,87.80
2023-02-08T13:54:20.448Z,88.00
2023-02-08T13:56:50.552Z,87.80
2023-02-08T13:59:18.113Z,87.90
2023-02-08T14:01:45.665Z,88.00
2023-02-08T14:04:15.944Z,88.00
2023-02-08T14:06:43.486Z,87.70
2023-02-08T14:09:14.893Z,87.80
2023-02-08T14:11:44.718Z,88.00
2023-02-08T14:14:12.413Z,88.00
2023-02-08T14:16:40.111Z,88.70
2023-02-08T14:19:08.828Z,88.20
2023-02-08T14:21:36.435Z,88.20
2023-02-08T14:24:04.069Z,88.10
2023-02-08T14:26:34.365Z,88.60
2023-02-08T14:29:01.901Z,88.50
2023-02-08T14:31:30.504Z,88.70
2023-02-08T14:34:00.394Z,88.70
2023-02-08T14:36:27.956Z,88.80
2023-02-08T14:38:55.544Z,89.00
2023-02-08T14:41:25.362Z,89.10
2023-02-08T14:43:52.925Z,89.00
2023-02-08T14:46:22.217Z,89.00
2023-02-08T14:48:52.025Z,89.00
2023-02-08T14:51:19.700Z,88.90
2023-02-08T14:53:47.977Z,89.30
2023-02-08T14:56:15.659Z,89.20
2023-02-08T14:58:43.092Z,89.50
2023-02-08T15:01:11.500Z,89.40
2023-02-08T15:03:41.486Z,89.20
2023-02-08T15:06:10.133Z,89.20
2023-02-08T15:08:38.002Z,89.60
2023-02-08T15:11:13.603Z,89.90
2023-02-08T15:13:41.574Z,89.60
2023-02-08T15:16:09.441Z,89.50
2023-02-08T15:18:39.592Z,90.00
2023-02-08T15:21:07.858Z,90.10
2023-02-08T15:23:35.362Z,89.90
2023-02-08T15:26:05.092Z,90.00
2023-02-08T15:28:33.523Z,90.10
2023-02-08T15:31:01.907Z,90.40
2023-02-08T15:33:31.737Z,90.20
2023-02-08T15:35:59.594Z,90.30
2023-02-08T15:38:27.156Z,90.40
2023-02-08T15:40:54.762Z,90.40
2023-02-08T15:43:22.996Z,90.20
2023-02-08T15:45:50.521Z,90.30
2023-02-08T15:48:20.008Z,90.40
2023-02-08T15:50:48.331Z,90.40
2023-02-08T15:53:15.880Z,90.60
2023-02-08T15:55:45.475Z,90.70
2023-02-08T15:58:13.551Z,90.80
2023-02-08T16:00:41.293Z,91.10
2023-02-08T16:03:10.878Z,91.00
2023-02-08T16:05:38.591Z,91.50
2023-02-08T16:08:06.190Z,91.60
2023-02-08T16:10:35.611Z,92.00
2023-02-08T16:13:05.456Z,92.20
2023-02-08T16:15:32.980Z,92.50
2023-02-08T16:18:02.477Z,92.60
2023-02-08T16:20:34.073Z,92.50
2023-02-08T16:23:10.410Z,92.60
2023-02-08T16:25:38.830Z,92.60
2023-02-08T16:28:06.470Z,92.70
2023-02-08T16:30:38.673Z,92.80
2023-02-08T16:33:16.517Z,92.80
2023-02-08T16:35:46.325Z,92.90
2023-02-08T16:38:13.865Z,92.80
2023-02-08T16:40:47.362Z,92.80
2023-02-08T16:43:25.766Z,92.80
2023-02-08T16:46:12.179Z,92.90
2023-02-08T16:48:41.714Z,93.10
2023-02-08T16:51:09.268Z,93.10
2023-02-08T16:53:42.197Z,93.10
2023-02-08T16:56:12.332Z,93.30
2023-02-08T16:58:41.261Z,93.30
2023-02-08T17:01:08.774Z,93.30
2023-02-08T17:03:36.570Z,93.50
2023-02-08T17:06:04.955Z,93.40
2023-02-08T17:08:32.480Z,93.50
2023-02-08T17:11:02.063Z,93.60
2023-02-08T17:13:42.678Z,93.60
2023-02-08T17:16:12.540Z,93.60
2023-02-08T17:18:40.068Z,93.50
2023-02-08T17:21:08.350Z,93.30
2023-02-08T17:23:37.943Z,93.40
2023-02-08T17:26:05.490Z,93.40
2023-02-08T17:28:34.361Z,93.60
2023-02-08T17:31:04.175Z,93.90
2023-02-08T17:33:31.947Z,94.00
2023-02-08T17:35:59.678Z,94.00
2023-02-08T17:38:29.366Z,94.30
2023-02-08T17:40:56.968Z,95.00
2023-02-08T17:43:25.470Z,95.30
2023-02-08T17:45:55.293Z,95.40
2023-02-08T17:48:22.869Z,95.40
2023-02-08T17:50:50.614Z,95.40
2023-02-08T17:53:20.414Z,95.70
2023-02-08T17:55:53.509Z,95.60
2023-02-08T17:58:23.209Z,95.70
2023-02-08T18:00:50.910Z,95.60
2023-02-08T18:03:26.653Z,95.80
2023-02-08T18:06:09.059Z,96.00
2023-02-08T18:08:58.090Z,96.10
2023-02-08T18:11:25.686Z,96.10
2023-02-08T18:14:16.113Z,96.40
2023-02-08T18:16:43.747Z,96.40
2023-02-08T18:19:11.782Z,96.60
2023-02-08T18:21:42.739Z,96.70
2023-02-08T18:24:10.279Z,97.20
2023-02-08T18:26:38.361Z,97.50
2023-02-08T18:29:07.879Z,97.60
2023-02-08T18:31:35.620Z,97.90
2023-02-08T18:34:03.270Z,97.80
2023-02-08T18:36:33.659Z,98.00
2023-02-08T18:39:01.320Z,98.10
2023-02-08T18:41:28.799Z,98.20
2023-02-08T18:43:57.794Z,98.30
2023-02-08T18:46:25.300Z,98.30
2023-02-08T18:48:52.980Z,98.20
2023-02-08T18:51:21.792Z,98.00
2023-02-08T18:53:49.509Z,97.80
2023-02-08T18:56:17.075Z,97.50
2023-02-08T18:58:47.360Z,97.10
2023-02-08T19:01:15.247Z,96.50
2023-02-08T19:03:42.915Z,96.20
2023-02-08T19:06:12.753Z,95.70
2023-02-08T19:08:40.288Z,95.00
2023-02-08T19:11:07.900Z,94.00
2023-02-08T19:13:37.811Z,93.90
2023-02-08T19:16:05.655Z,93.40
2023-02-08T19:18:33.640Z,92.90
2023-02-08T19:21:04.456Z,92.70
2023-02-08T19:23:34.604Z,92.50
2023-02-08T19:26:02.173Z,92.30
2023-02-08T19:28:33.025Z,92.20
2023-02-08T19:31:00.669Z,92.10
2023-02-08T19:33:28.254Z,92.30
2023-02-08T19:35:58.216Z,92.20
2023-02-08T19:38:25.766Z,92.30
2023-02-08T19:40:53.382Z,92.50
2023-02-08T19:43:24.522Z,92.70
2023-02-08T19:45:52.067Z,92.60
2023-02-08T19:48:19.585Z,92.90
2023-02-08T19:50:50.307Z,93.00
2023-02-08T19:53:17.921Z,93.30
2023-02-08T19:55:45.592Z,93.40
2023-02-08T19:58:15.816Z,93.60
2023-02-08T20:00:44.118Z,93.80
2023-02-08T20:03:21.120Z,93.90
2023-02-08T20:05:52.374Z,94.10
2023-02-08T20:08:20.015Z,94.20
2023-02-08T20:10:47.545Z,94.50
2023-02-08T20:13:17.874Z,94.60
2023-02-08T20:15:45.669Z,95.00
2023-02-08T20:18:13.338Z,95.30
2023-02-08T20:20:42.762Z,95.40
2023-02-08T20:23:21.699Z,95.50
2023-02-08T20:25:52.538Z,95.60
2023-02-08T20:28:20.217Z,95.80
2023-02-08T20:30:47.808Z,95.80
2023-02-08T20:33:17.685Z,96.00
2023-02-08T20:35:45.349Z,95.90
2023-02-08T20:38:14.334Z,95.80
2023-02-08T20:40:45.187Z,95.90
2023-02-08T20:43:12.879Z,96.00
2023-02-08T20:45:40.500Z,96.00
2023-02-08T20:48:10.531Z,96.20
2023-02-08T20:50:38.226Z,96.40
2023-02-08T20:53:06.190Z,96.40
2023-02-08T20:55:36.042Z,96.40
2023-02-08T20:58:04.463Z,96.40
2023-02-08T21:00:40.409Z,96.60
2023-02-08T21:03:18.442Z,97.00
2023-02-08T21:05:46.059Z,97.20
2023-02-08T21:08:18.437Z,97.40
2023-02-08T21:10:59.053Z,97.80
2023-02-08T21:13:30.467Z,98.00
2023-02-08T21:16:01.546Z,98.30
2023-02-08T21:18:33.442Z,98.50
2023-02-08T21:21:04.573Z,98.90
2023-02-08T21:23:33.018Z,99.00
2023-02-08T21:26:00.603Z,99.30
2023-02-08T21:28:31.029Z,99.30
2023-02-08T21:30:58.803Z,99.60
2023-02-08T21:33:26.460Z,99.60
2023-02-08T21:35:54.747Z,99.70
2023-02-08T21:38:22.403Z,99.60
2023-02-08T21:40:50.119Z,99.80
2023-02-08T21:43:19.955Z,99.80
2023-02-08T21:45:48.748Z,99.80
2023-02-08T21:48:16.259Z,99.80
2023-02-08T21:50:44.456Z,99.90
2023-02-08T21:53:12.175Z,99.90
2023-02-08T21:55:39.694Z,99.90
2023-02-08T21:58:09.943Z,99.90
2023-02-08T22:00:37.569Z,99.90
2023-02-08T22:03:08.470Z,99.70
2023-02-08T22:05:38.078Z,99.40
2023-02-08T22:08:05.863Z,99.30
2023-02-08T22:10:33.557Z,99.40
2023-02-08T22:13:01.354Z,99.60
2023-02-08T22:15:29.110Z,99.80
2023-02-08T22:17:57.531Z,99.90
2023-02-08T22:20:28.324Z,99.90
2023-02-08T22:22:56.092Z,99.90
2023-02-08T22:25:23.731Z,99.90
2023-02-08T22:27:53.759Z,99.90
2023-02-08T22:30:22.122Z,99.90
2023-02-08T22:32:51.672Z,99.90
2023-02-08T22:35:21.200Z,99.90
2023-02-08T22:37:48.791Z,99.90
2023-02-08T22:40:17.616Z,99.90
2023-02-08T22:42:47.361Z,99.90
2023-02-08T22:45:14.932Z,99.90
2023-02-08T22:47:44.649Z,99.90
2023-02-08T22:50:15.252Z,99.90
2023-02-08T22:52:42.788Z,99.90
2023-02-08T22:55:10.712Z,99.90
2023-02-08T22:57:40.199Z,99.90
2023-02-08T23:00:07.765Z,99.90
2023-02-08T23:02:36.503Z,99.90
2023-02-08T23:05:07.799Z,99.90
2023-02-08T23:07:35.540Z,99.90
2023-02-08T23:10:03.754Z,99.90
2023-02-08T23:12:32.152Z,99.90
2023-02-08T23:14:59.642Z,99.90
2023-02-08T23:17:27.963Z,99.90
2023-02-08T23:19:57.493Z,99.90
2023-02-08T23:22:29.352Z,99.90
2023-02-08T23:24:57.005Z,99.90
2023-02-08T23:27:26.668Z,99.90
2023-02-08T23:29:54.216Z,99.90
2023-02-08T23:32:22.589Z,99.90
2023-02-08T23:34:52.086Z,99.90
2023-02-08T23:37:19.840Z,99.90
2023-02-08T23:39:47.670Z,99.90
2023-02-08T23:42:15.330Z,99.90
2023-02-08T23:44:42.949Z,99.90
2023-02-08T23:47:10.636Z,99.90
2023-02-08T23:49:40.349Z,99.90
2023-02-08T23:52:08.661Z,99.90
2023-02-08T23:54:36.732Z,99.90
2023-02-08T23:57:06.436Z,99.90
2023-02-08T23:59:34.311Z,99.90
